sensor_id;sensor_type;location;lat;lon;timestamp;P1;durP1;ratioP1;P2;durP2;ratioP2
26512;SDS011;14186;53.822;10.152;2023-03-15T00:02:27;3.97;;;1.50;;
26512;SDS011;14186;53.822;10.152;2023-03-15T00:07:27;5.88;;;1.77;;
26512;SDS011;14186;53.822;10.152;2023-03-15T00:12:27;9.18;;;2.78;;
26512;SDS011;14186;53.822;10.152;2023-03-15T00:17:29;8.68;;;2.60;;
26512;SDS011;14186;53.822;10.152;2023-03-15T00:22:29;8.32;;;2.40;;
26512;SDS011;14186;53.822;10.152;2023-03-15T00:27:29;6.03;;;1.92;;
26512;SDS011;14186;53.822;10.152;2023-03-15T00:32:31;11.18;;;2.30;;
26512;SDS011;14186;53.822;10.152;2023-03-15T00:37:31;15.38;;;3.20;;
26512;SDS011;14186;53.822;10.152;2023-03-15T00:42:31;12.00;;;2.78;;
26512;SDS011;14186;53.822;10.152;2023-03-15T00:47:33;6.40;;;2.55;;
26512;SDS011;14186;53.822;10.152;2023-03-15T00:52:33;6.40;;;2.58;;
26512;SDS011;14186;53.822;10.152;2023-03-15T00:57:34;12.68;;;2.90;;
26512;SDS011;14186;53.822;10.152;2023-03-15T01:02:35;6.97;;;2.65;;
26512;SDS011;14186;53.822;10.152;2023-03-15T01:07:35;11.80;;;2.90;;
26512;SDS011;14186;53.822;10.152;2023-03-15T01:12:36;10.75;;;2.88;;
26512;SDS011;14186;53.822;10.152;2023-03-15T01:17:37;6.43;;;2.22;;
26512;SDS011;14186;53.822;10.152;2023-03-15T01:22:37;8.32;;;3.00;;
26512;SDS011;14186;53.822;10.152;2023-03-15T01:27:38;11.15;;;2.65;;
26512;SDS011;14186;53.822;10.152;2023-03-15T01:32:39;6.68;;;2.35;;
26512;SDS011;14186;53.822;10.152;2023-03-15T01:37:39;10.65;;;2.88;;
26512;SDS011;14186;53.822;10.152;2023-03-15T01:42:52;11.18;;;2.88;;
26512;SDS011;14186;53.822;10.152;2023-03-15T01:47:54;7.22;;;3.55;;
26512;SDS011;14186;53.822;10.152;2023-03-15T01:52:54;10.65;;;3.10;;
26512;SDS011;14186;53.822;10.152;2023-03-15T01:57:55;9.32;;;2.90;;
26512;SDS011;14186;53.822;10.152;2023-03-15T02:02:58;8.13;;;2.90;;
26512;SDS011;14186;53.822;10.152;2023-03-15T02:07:59;6.90;;;2.58;;
26512;SDS011;14186;53.822;10.152;2023-03-15T02:13:01;8.68;;;3.17;;
26512;SDS011;14186;53.822;10.152;2023-03-15T02:18:03;7.25;;;2.50;;
26512;SDS011;14186;53.822;10.152;2023-03-15T02:23:04;7.60;;;2.70;;
26512;SDS011;14186;53.822;10.152;2023-03-15T02:28:07;5.30;;;2.30;;
26512;SDS011;14186;53.822;10.152;2023-03-15T02:33:10;4.80;;;2.13;;
26512;SDS011;14186;53.822;10.152;2023-03-15T02:38:12;5.47;;;2.08;;
26512;SDS011;14186;53.822;10.152;2023-03-15T02:43:15;4.00;;;1.40;;
26512;SDS011;14186;53.822;10.152;2023-03-15T02:48:16;4.72;;;1.50;;
26512;SDS011;14186;53.822;10.152;2023-03-15T02:53:17;5.18;;;1.65;;
26512;SDS011;14186;53.822;10.152;2023-03-15T02:58:18;3.45;;;1.52;;
26512;SDS011;14186;53.822;10.152;2023-03-15T03:03:19;4.60;;;2.38;;
26512;SDS011;14186;53.822;10.152;2023-03-15T03:08:19;4.25;;;1.83;;
26512;SDS011;14186;53.822;10.152;2023-03-15T03:13:20;3.50;;;1.40;;
26512;SDS011;14186;53.822;10.152;2023-03-15T03:18:21;4.63;;;1.83;;
26512;SDS011;14186;53.822;10.152;2023-03-15T03:23:21;5.07;;;1.85;;
26512;SDS011;14186;53.822;10.152;2023-03-15T03:28:23;4.05;;;1.80;;
26512;SDS011;14186;53.822;10.152;2023-03-15T03:33:24;4.30;;;1.80;;
26512;SDS011;14186;53.822;10.152;2023-03-15T03:38:24;5.25;;;1.85;;
26512;SDS011;14186;53.822;10.152;2023-03-15T03:43:25;4.25;;;1.60;;
26512;SDS011;14186;53.822;10.152;2023-03-15T03:48:26;3.28;;;1.40;;
26512;SDS011;14186;53.822;10.152;2023-03-15T03:53:26;5.25;;;1.90;;
26512;SDS011;14186;53.822;10.152;2023-03-15T03:58:27;6.55;;;2.20;;
26512;SDS011;14186;53.822;10.152;2023-03-15T04:03:28;7.28;;;2.40;;
26512;SDS011;14186;53.822;10.152;2023-03-15T04:08:28;5.43;;;2.50;;
26512;SDS011;14186;53.822;10.152;2023-03-15T04:13:30;7.95;;;2.67;;
26512;SDS011;14186;53.822;10.152;2023-03-15T04:18:30;7.40;;;3.63;;
26512;SDS011;14186;53.822;10.152;2023-03-15T04:23:30;9.52;;;3.90;;
26512;SDS011;14186;53.822;10.152;2023-03-15T04:28:32;10.20;;;4.35;;
26512;SDS011;14186;53.822;10.152;2023-03-15T04:33:32;9.98;;;4.53;;
26512;SDS011;14186;53.822;10.152;2023-03-15T04:38:32;11.63;;;4.68;;
26512;SDS011;14186;53.822;10.152;2023-03-15T04:43:34;16.25;;;5.05;;
26512;SDS011;14186;53.822;10.152;2023-03-15T04:48:34;11.48;;;4.80;;
26512;SDS011;14186;53.822;10.152;2023-03-15T04:53:34;13.05;;;5.10;;
26512;SDS011;14186;53.822;10.152;2023-03-15T04:58:36;11.38;;;4.57;;
26512;SDS011;14186;53.822;10.152;2023-03-15T05:03:36;15.35;;;5.07;;
26512;SDS011;14186;53.822;10.152;2023-03-15T05:08:36;14.65;;;5.35;;
26512;SDS011;14186;53.822;10.152;2023-03-15T05:13:38;11.80;;;5.18;;
26512;SDS011;14186;53.822;10.152;2023-03-15T05:18:38;13.52;;;5.25;;
26512;SDS011;14186;53.822;10.152;2023-03-15T05:23:38;14.98;;;4.20;;
26512;SDS011;14186;53.822;10.152;2023-03-15T05:28:40;12.50;;;4.40;;
26512;SDS011;14186;53.822;10.152;2023-03-15T05:33:40;11.63;;;4.38;;
26512;SDS011;14186;53.822;10.152;2023-03-15T05:38:40;9.20;;;3.60;;
26512;SDS011;14186;53.822;10.152;2023-03-15T05:43:42;14.75;;;4.50;;
26512;SDS011;14186;53.822;10.152;2023-03-15T05:48:42;13.75;;;4.78;;
26512;SDS011;14186;53.822;10.152;2023-03-15T05:53:42;24.58;;;5.70;;
26512;SDS011;14186;53.822;10.152;2023-03-15T05:58:44;22.77;;;5.18;;
26512;SDS011;14186;53.822;10.152;2023-03-15T06:03:44;21.67;;;6.07;;
26512;SDS011;14186;53.822;10.152;2023-03-15T06:08:44;23.77;;;5.60;;
26512;SDS011;14186;53.822;10.152;2023-03-15T06:13:46;15.50;;;5.95;;
26512;SDS011;14186;53.822;10.152;2023-03-15T06:18:46;22.65;;;6.80;;
26512;SDS011;14186;53.822;10.152;2023-03-15T06:23:46;20.40;;;7.05;;
26512;SDS011;14186;53.822;10.152;2023-03-15T06:28:47;20.98;;;7.53;;
26512;SDS011;14186;53.822;10.152;2023-03-15T06:33:48;21.95;;;6.80;;
26512;SDS011;14186;53.822;10.152;2023-03-15T06:38:48;19.00;;;7.85;;
26512;SDS011;14186;53.822;10.152;2023-03-15T06:43:49;15.40;;;6.18;;
26512;SDS011;14186;53.822;10.152;2023-03-15T06:48:50;16.77;;;6.47;;
26512;SDS011;14186;53.822;10.152;2023-03-15T06:53:50;14.05;;;6.10;;
26512;SDS011;14186;53.822;10.152;2023-03-15T06:58:52;12.02;;;5.32;;
26512;SDS011;14186;53.822;10.152;2023-03-15T07:03:52;12.15;;;5.45;;
26512;SDS011;14186;53.822;10.152;2023-03-15T07:08:52;10.70;;;4.55;;
26512;SDS011;14186;53.822;10.152;2023-03-15T07:13:54;4.95;;;1.90;;
26512;SDS011;14186;53.822;10.152;2023-03-15T07:18:54;5.57;;;1.50;;
26512;SDS011;14186;53.822;10.152;2023-03-15T07:23:54;5.30;;;1.48;;
26512;SDS011;14186;53.822;10.152;2023-03-15T07:28:56;4.30;;;1.80;;
26512;SDS011;14186;53.822;10.152;2023-03-15T07:33:56;4.18;;;0.93;;
26512;SDS011;14186;53.822;10.152;2023-03-15T07:38:56;5.65;;;0.98;;
26512;SDS011;14186;53.822;10.152;2023-03-15T07:43:58;4.70;;;1.08;;
26512;SDS011;14186;53.822;10.152;2023-03-15T07:48:58;3.60;;;0.70;;
26512;SDS011;14186;53.822;10.152;2023-03-15T07:53:58;2.78;;;0.82;;
26512;SDS011;14186;53.822;10.152;2023-03-15T07:58:59;4.20;;;0.93;;
26512;SDS011;14186;53.822;10.152;2023-03-15T08:04:00;3.03;;;0.77;;
26512;SDS011;14186;53.822;10.152;2023-03-15T08:09:00;2.88;;;0.70;;
26512;SDS011;14186;53.822;10.152;2023-03-15T08:14:01;5.90;;;1.10;;
26512;SDS011;14186;53.822;10.152;2023-03-15T08:19:02;3.05;;;1.02;;
26512;SDS011;14186;53.822;10.152;2023-03-15T08:24:02;2.92;;;1.30;;
26512;SDS011;14186;53.822;10.152;2023-03-15T08:29:03;3.00;;;1.13;;
26512;SDS011;14186;53.822;10.152;2023-03-15T08:34:04;2.55;;;1.20;;
26512;SDS011;14186;53.822;10.152;2023-03-15T08:39:04;3.17;;;1.25;;
26512;SDS011;14186;53.822;10.152;2023-03-15T08:44:06;2.80;;;1.30;;
26512;SDS011;14186;53.822;10.152;2023-03-15T08:49:06;5.53;;;2.15;;
26512;SDS011;14186;53.822;10.152;2023-03-15T08:54:06;7.13;;;2.10;;
26512;SDS011;14186;53.822;10.152;2023-03-15T08:59:08;7.00;;;1.65;;
26512;SDS011;14186;53.822;10.152;2023-03-15T09:04:08;3.60;;;0.90;;
26512;SDS011;14186;53.822;10.152;2023-03-15T09:09:08;2.72;;;0.90;;
26512;SDS011;14186;53.822;10.152;2023-03-15T09:14:10;2.90;;;0.90;;
26512;SDS011;14186;53.822;10.152;2023-03-15T09:19:10;8.20;;;2.00;;
26512;SDS011;14186;53.822;10.152;2023-03-15T09:24:10;5.65;;;1.77;;
26512;SDS011;14186;53.822;10.152;2023-03-15T09:29:12;5.40;;;1.17;;
26512;SDS011;14186;53.822;10.152;2023-03-15T09:34:12;4.88;;;1.40;;
26512;SDS011;14186;53.822;10.152;2023-03-15T09:39:12;3.22;;;0.80;;
26512;SDS011;14186;53.822;10.152;2023-03-15T09:44:20;4.65;;;1.25;;
26512;SDS011;14186;53.822;10.152;2023-03-15T09:49:25;3.05;;;1.00;;
26512;SDS011;14186;53.822;10.152;2023-03-15T09:54:28;2.45;;;1.10;;
26512;SDS011;14186;53.822;10.152;2023-03-15T09:59:33;6.10;;;1.42;;
26512;SDS011;14186;53.822;10.152;2023-03-15T10:04:33;3.60;;;1.05;;
26512;SDS011;14186;53.822;10.152;2023-03-15T10:09:35;4.22;;;0.95;;
26512;SDS011;14186;53.822;10.152;2023-03-15T10:14:45;4.45;;;0.85;;
26512;SDS011;14186;53.822;10.152;2023-03-15T10:19:48;3.53;;;0.90;;
26512;SDS011;14186;53.822;10.152;2023-03-15T10:24:48;10.00;;;1.17;;
26512;SDS011;14186;53.822;10.152;2023-03-15T10:29:51;4.68;;;1.20;;
26512;SDS011;14186;53.822;10.152;2023-03-15T10:34:52;4.15;;;0.82;;
26512;SDS011;14186;53.822;10.152;2023-03-15T10:39:55;3.67;;;1.10;;
26512;SDS011;14186;53.822;10.152;2023-03-15T10:44:57;8.95;;;1.33;;
26512;SDS011;14186;53.822;10.152;2023-03-15T10:49:58;6.55;;;1.42;;
26512;SDS011;14186;53.822;10.152;2023-03-15T10:54:59;3.63;;;0.60;;
26512;SDS011;14186;53.822;10.152;2023-03-15T11:00:01;3.53;;;0.63;;
26512;SDS011;14186;53.822;10.152;2023-03-15T11:05:03;4.15;;;1.52;;
26512;SDS011;14186;53.822;10.152;2023-03-15T11:10:04;5.68;;;0.73;;
26512;SDS011;14186;53.822;10.152;2023-03-15T11:15:09;9.80;;;0.90;;
26512;SDS011;14186;53.822;10.152;2023-03-15T11:20:17;6.93;;;0.80;;
26512;SDS011;14186;53.822;10.152;2023-03-15T11:25:21;6.53;;;0.98;;
26512;SDS011;14186;53.822;10.152;2023-03-15T11:30:24;4.57;;;0.60;;
26512;SDS011;14186;53.822;10.152;2023-03-15T11:35:27;4.57;;;0.70;;
26512;SDS011;14186;53.822;10.152;2023-03-15T11:40:32;2.22;;;0.65;;
26512;SDS011;14186;53.822;10.152;2023-03-15T11:45:34;2.08;;;0.47;;
26512;SDS011;14186;53.822;10.152;2023-03-15T11:50:35;6.90;;;0.50;;
26512;SDS011;14186;53.822;10.152;2023-03-15T11:55:36;4.72;;;0.47;;
26512;SDS011;14186;53.822;10.152;2023-03-15T12:05:52;6.57;;;0.88;;
26512;SDS011;14186;53.822;10.152;2023-03-15T12:10:57;6.28;;;1.05;;
26512;SDS011;14186;53.822;10.152;2023-03-15T12:15:57;4.25;;;0.65;;
26512;SDS011;14186;53.822;10.152;2023-03-15T12:21:06;9.45;;;0.85;;
26512;SDS011;14186;53.822;10.152;2023-03-15T12:26:08;5.03;;;0.70;;
26512;SDS011;14186;53.822;10.152;2023-03-15T12:31:09;5.50;;;0.70;;
26512;SDS011;14186;53.822;10.152;2023-03-15T12:36:15;4.57;;;0.60;;
26512;SDS011;14186;53.822;10.152;2023-03-15T12:51:55;6.20;;;0.88;;
26512;SDS011;14186;53.822;10.152;2023-03-15T12:56:55;10.27;;;1.08;;
26512;SDS011;14186;53.822;10.152;2023-03-15T13:01:57;2.13;;;0.40;;
26512;SDS011;14186;53.822;10.152;2023-03-15T13:07:03;4.82;;;0.80;;
26512;SDS011;14186;53.822;10.152;2023-03-15T13:12:07;3.53;;;0.95;;
26512;SDS011;14186;53.822;10.152;2023-03-15T13:17:13;6.18;;;0.90;;
26512;SDS011;14186;53.822;10.152;2023-03-15T13:22:23;6.13;;;0.82;;
26512;SDS011;14186;53.822;10.152;2023-03-15T13:27:29;6.22;;;1.00;;
26512;SDS011;14186;53.822;10.152;2023-03-15T13:32:31;3.58;;;0.77;;
26512;SDS011;14186;53.822;10.152;2023-03-15T13:37:33;8.07;;;1.10;;
26512;SDS011;14186;53.822;10.152;2023-03-15T13:42:37;7.72;;;1.50;;
26512;SDS011;14186;53.822;10.152;2023-03-15T13:47:38;4.53;;;0.95;;
26512;SDS011;14186;53.822;10.152;2023-03-15T13:52:40;4.95;;;1.23;;
26512;SDS011;14186;53.822;10.152;2023-03-15T13:57:41;8.98;;;1.10;;
26512;SDS011;14186;53.822;10.152;2023-03-15T14:02:45;17.63;;;1.75;;
26512;SDS011;14186;53.822;10.152;2023-03-15T14:07:47;13.32;;;2.88;;
26512;SDS011;14186;53.822;10.152;2023-03-15T14:12:49;6.75;;;1.55;;
26512;SDS011;14186;53.822;10.152;2023-03-15T14:17:51;13.65;;;2.35;;
26512;SDS011;14186;53.822;10.152;2023-03-15T14:22:55;6.55;;;1.35;;
26512;SDS011;14186;53.822;10.152;2023-03-15T14:27:58;11.43;;;1.38;;
26512;SDS011;14186;53.822;10.152;2023-03-15T14:32:59;10.13;;;1.30;;
26512;SDS011;14186;53.822;10.152;2023-03-15T14:38:02;8.00;;;1.55;;
26512;SDS011;14186;53.822;10.152;2023-03-15T14:43:04;10.80;;;1.15;;
26512;SDS011;14186;53.822;10.152;2023-03-15T14:48:05;8.23;;;1.67;;
26512;SDS011;14186;53.822;10.152;2023-03-15T14:53:08;10.95;;;3.17;;
26512;SDS011;14186;53.822;10.152;2023-03-15T14:58:12;11.23;;;2.00;;
26512;SDS011;14186;53.822;10.152;2023-03-15T15:03:13;7.15;;;1.13;;
26512;SDS011;14186;53.822;10.152;2023-03-15T15:08:17;10.77;;;1.77;;
26512;SDS011;14186;53.822;10.152;2023-03-15T15:13:20;12.20;;;1.85;;
26512;SDS011;14186;53.822;10.152;2023-03-15T15:18:20;12.07;;;1.52;;
26512;SDS011;14186;53.822;10.152;2023-03-15T15:23:23;4.68;;;0.73;;
26512;SDS011;14186;53.822;10.152;2023-03-15T15:28:23;5.88;;;0.70;;
26512;SDS011;14186;53.822;10.152;2023-03-15T15:33:23;8.20;;;0.93;;
26512;SDS011;14186;53.822;10.152;2023-03-15T15:38:26;9.38;;;1.05;;
26512;SDS011;14186;53.822;10.152;2023-03-15T15:43:28;5.85;;;0.70;;
26512;SDS011;14186;53.822;10.152;2023-03-15T15:48:28;14.18;;;1.60;;
26512;SDS011;14186;53.822;10.152;2023-03-15T15:53:30;6.57;;;1.08;;
26512;SDS011;14186;53.822;10.152;2023-03-15T15:58:31;13.18;;;1.98;;
26512;SDS011;14186;53.822;10.152;2023-03-15T16:03:31;11.85;;;1.35;;
26512;SDS011;14186;53.822;10.152;2023-03-15T16:08:34;15.13;;;1.70;;
26512;SDS011;14186;53.822;10.152;2023-03-15T16:13:36;15.95;;;1.55;;
26512;SDS011;14186;53.822;10.152;2023-03-15T16:18:36;9.90;;;1.20;;
26512;SDS011;14186;53.822;10.152;2023-03-15T16:23:37;8.32;;;1.27;;
26512;SDS011;14186;53.822;10.152;2023-03-15T16:28:38;8.20;;;1.48;;
26512;SDS011;14186;53.822;10.152;2023-03-15T16:33:38;7.65;;;1.42;;
26512;SDS011;14186;53.822;10.152;2023-03-15T16:38:39;11.88;;;1.42;;
26512;SDS011;14186;53.822;10.152;2023-03-15T16:43:40;11.13;;;1.45;;
26512;SDS011;14186;53.822;10.152;2023-03-15T16:48:40;12.25;;;1.25;;
26512;SDS011;14186;53.822;10.152;2023-03-15T16:53:41;12.70;;;1.20;;
26512;SDS011;14186;53.822;10.152;2023-03-15T16:58:42;8.27;;;1.00;;
26512;SDS011;14186;53.822;10.152;2023-03-15T17:03:43;7.55;;;1.40;;
26512;SDS011;14186;53.822;10.152;2023-03-15T17:08:44;13.90;;;1.42;;
26512;SDS011;14186;53.822;10.152;2023-03-15T17:13:45;14.00;;;1.40;;
26512;SDS011;14186;53.822;10.152;2023-03-15T17:18:45;12.20;;;1.17;;
26512;SDS011;14186;53.822;10.152;2023-03-15T17:23:46;8.20;;;1.48;;
26512;SDS011;14186;53.822;10.152;2023-03-15T17:28:47;11.98;;;1.38;;
26512;SDS011;14186;53.822;10.152;2023-03-15T17:33:48;10.32;;;1.13;;
26512;SDS011;14186;53.822;10.152;2023-03-15T17:38:50;10.00;;;1.40;;
26512;SDS011;14186;53.822;10.152;2023-03-15T17:43:50;14.05;;;1.52;;
26512;SDS011;14186;53.822;10.152;2023-03-15T17:48:50;8.38;;;1.83;;
26512;SDS011;14186;53.822;10.152;2023-03-15T17:53:52;10.27;;;1.60;;
26512;SDS011;14186;53.822;10.152;2023-03-15T17:58:52;6.18;;;1.40;;
26512;SDS011;14186;53.822;10.152;2023-03-15T18:03:53;11.65;;;1.48;;
26512;SDS011;14186;53.822;10.152;2023-03-15T18:08:55;12.88;;;1.67;;
26512;SDS011;14186;53.822;10.152;2023-03-15T18:13:55;6.85;;;0.93;;
26512;SDS011;14186;53.822;10.152;2023-03-15T18:18:55;7.63;;;1.00;;
26512;SDS011;14186;53.822;10.152;2023-03-15T18:23:56;9.27;;;1.13;;
26512;SDS011;14186;53.822;10.152;2023-03-15T18:28:57;7.78;;;1.08;;
26512;SDS011;14186;53.822;10.152;2023-03-15T18:33:57;7.75;;;1.15;;
26512;SDS011;14186;53.822;10.152;2023-03-15T18:38:58;13.88;;;1.48;;
26512;SDS011;14186;53.822;10.152;2023-03-15T18:44:00;7.90;;;1.10;;
26512;SDS011;14186;53.822;10.152;2023-03-15T18:49:00;8.32;;;1.45;;
26512;SDS011;14186;53.822;10.152;2023-03-15T18:54:02;8.27;;;1.38;;
26512;SDS011;14186;53.822;10.152;2023-03-15T18:59:02;5.68;;;1.15;;
26512;SDS011;14186;53.822;10.152;2023-03-15T19:04:02;9.27;;;1.45;;
26512;SDS011;14186;53.822;10.152;2023-03-15T19:09:04;11.05;;;1.55;;
26512;SDS011;14186;53.822;10.152;2023-03-15T19:14:04;10.82;;;1.65;;
26512;SDS011;14186;53.822;10.152;2023-03-15T19:19:04;8.98;;;1.20;;
26512;SDS011;14186;53.822;10.152;2023-03-15T19:24:06;6.47;;;1.50;;
26512;SDS011;14186;53.822;10.152;2023-03-15T19:29:07;11.02;;;2.08;;
26512;SDS011;14186;53.822;10.152;2023-03-15T19:34:07;10.98;;;1.40;;
26512;SDS011;14186;53.822;10.152;2023-03-15T19:39:08;10.90;;;1.73;;
26512;SDS011;14186;53.822;10.152;2023-03-15T19:44:09;7.88;;;1.58;;
26512;SDS011;14186;53.822;10.152;2023-03-15T19:49:09;12.85;;;2.45;;
26512;SDS011;14186;53.822;10.152;2023-03-15T19:54:11;10.10;;;1.20;;
26512;SDS011;14186;53.822;10.152;2023-03-15T19:59:11;11.80;;;2.45;;
26512;SDS011;14186;53.822;10.152;2023-03-15T20:04:11;17.52;;;1.77;;
26512;SDS011;14186;53.822;10.152;2023-03-15T20:09:12;13.63;;;1.73;;
26512;SDS011;14186;53.822;10.152;2023-03-15T20:14:13;8.40;;;1.40;;
26512;SDS011;14186;53.822;10.152;2023-03-15T20:19:14;11.55;;;1.92;;
26512;SDS011;14186;53.822;10.152;2023-03-15T20:24:15;13.80;;;2.20;;
26512;SDS011;14186;53.822;10.152;2023-03-15T20:29:15;10.70;;;1.83;;
26512;SDS011;14186;53.822;10.152;2023-03-15T20:34:16;7.22;;;1.48;;
26512;SDS011;14186;53.822;10.152;2023-03-15T20:39:17;9.05;;;1.88;;
26512;SDS011;14186;53.822;10.152;2023-03-15T20:44:17;11.40;;;1.88;;
26512;SDS011;14186;53.822;10.152;2023-03-15T20:49:17;20.10;;;3.15;;
26512;SDS011;14186;53.822;10.152;2023-03-15T20:54:19;11.18;;;2.63;;
26512;SDS011;14186;53.822;10.152;2023-03-15T20:59:19;10.60;;;2.53;;
26512;SDS011;14186;53.822;10.152;2023-03-15T21:04:19;13.43;;;2.35;;
26512;SDS011;14186;53.822;10.152;2023-03-15T21:09:21;11.77;;;2.17;;
26512;SDS011;14186;53.822;10.152;2023-03-15T21:14:21;7.95;;;2.20;;
26512;SDS011;14186;53.822;10.152;2023-03-15T21:19:22;12.88;;;2.33;;
26512;SDS011;14186;53.822;10.152;2023-03-15T21:24:23;14.77;;;2.17;;
26512;SDS011;14186;53.822;10.152;2023-03-15T21:29:23;12.10;;;1.95;;
26512;SDS011;14186;53.822;10.152;2023-03-15T21:34:24;8.25;;;2.03;;
26512;SDS011;14186;53.822;10.152;2023-03-15T21:39:25;10.23;;;2.00;;
26512;SDS011;14186;53.822;10.152;2023-03-15T21:44:26;9.93;;;2.10;;
26512;SDS011;14186;53.822;10.152;2023-03-15T21:49:26;15.15;;;2.50;;
26512;SDS011;14186;53.822;10.152;2023-03-15T21:54:27;8.20;;;2.55;;
26512;SDS011;14186;53.822;10.152;2023-03-15T21:59:28;9.45;;;2.30;;
26512;SDS011;14186;53.822;10.152;2023-03-15T22:04:28;15.93;;;2.78;;
26512;SDS011;14186;53.822;10.152;2023-03-15T22:09:29;19.15;;;3.20;;
26512;SDS011;14186;53.822;10.152;2023-03-15T22:14:30;9.88;;;2.28;;
26512;SDS011;14186;53.822;10.152;2023-03-15T22:19:30;14.43;;;2.65;;
26512;SDS011;14186;53.822;10.152;2023-03-15T22:24:32;13.82;;;2.85;;
26512;SDS011;14186;53.822;10.152;2023-03-15T22:29:32;13.32;;;2.05;;
26512;SDS011;14186;53.822;10.152;2023-03-15T22:34:32;9.55;;;2.72;;
26512;SDS011;14186;53.822;10.152;2023-03-15T22:39:34;14.90;;;2.97;;
26512;SDS011;14186;53.822;10.152;2023-03-15T22:44:34;10.07;;;2.63;;
26512;SDS011;14186;53.822;10.152;2023-03-15T22:49:34;7.28;;;2.85;;
26512;SDS011;14186;53.822;10.152;2023-03-15T22:54:36;13.25;;;2.17;;
26512;SDS011;14186;53.822;10.152;2023-03-15T22:59:36;10.10;;;2.78;;
26512;SDS011;14186;53.822;10.152;2023-03-15T23:04:36;15.02;;;2.85;;
26512;SDS011;14186;53.822;10.152;2023-03-15T23:09:38;10.48;;;2.28;;
26512;SDS011;14186;53.822;10.152;2023-03-15T23:14:38;9.35;;;3.13;;
26512;SDS011;14186;53.822;10.152;2023-03-15T23:19:38;13.13;;;2.40;;
26512;SDS011;14186;53.822;10.152;2023-03-15T23:24:40;14.40;;;2.38;;
26512;SDS011;14186;53.822;10.152;2023-03-15T23:29:40;8.38;;;2.30;;
26512;SDS011;14186;53.822;10.152;2023-03-15T23:34:40;13.55;;;2.72;;
26512;SDS011;14186;53.822;10.152;2023-03-15T23:39:42;13.77;;;2.45;;
26512;SDS011;14186;53.822;10.152;2023-03-15T23:44:42;11.65;;;3.10;;
26512;SDS011;14186;53.822;10.152;2023-03-15T23:49:42;15.57;;;2.90;;
26512;SDS011;14186;53.822;10.152;2023-03-15T23:54:44;13.20;;;2.75;;
26512;SDS011;14186;53.822;10.152;2023-03-15T23:59:44;23.60;;;4.82;;
